Time;durP1;ratioP1;P1;durP2;ratioP2;P2;SDS_P1;SDS_P2;PMS_P1;PMS_P2;Temp;Humidity;BMP_temperature;BMP_pressure;BME280_temperature;BME280_humidity;BME280_pressure;Samples;Min_cycle;Max_cycle;Signal;HPM_P1;HPM_P2
2022/09/12 00:01:10;;;;;;;20.85;11.35;;;21.70;65.20;;;;;;5075820;28;20044;-76
2022/09/12 00:03:37;;;;;;;23.63;13.50;;;21.70;64.00;;;;;;5078840;28;20110;-82
2022/09/12 00:06:16;;;;;;;45.90;26.98;;;21.60;63.90;;;;;;5074001;28;20048;-80
2022/09/12 00:08:42;;;;;;;29.40;20.38;;;21.60;63.50;;;;;;5060150;28;20032;-81
2022/09/12 00:11:09;;;;;;;28.48;18.85;;;21.60;63.40;;;;;;5087105;28;20031;-80
2022/09/12 00:13:37;;;;;;;18.02;10.98;;;21.60;64.30;;;;;;5069989;28;20496;-80
2022/09/12 00:16:04;;;;;;;20.48;12.57;;;21.60;64.20;;;;;;5051678;28;20032;-80
2022/09/12 00:18:31;;;;;;;22.10;12.98;;;21.60;64.20;;;;;;5066089;28;20033;-80
2022/09/12 00:20:56;;;;;;;24.38;13.07;;;21.60;64.30;;;;;;5070151;28;20029;-80
2022/09/12 00:23:22;;;;;;;22.45;12.57;;;21.70;64.30;;;;;;5071336;28;20031;-80
2022/09/12 00:25:48;;;;;;;20.65;13.52;;;21.60;64.40;;;;;;5071375;28;20060;-80
2022/09/12 00:28:16;;;;;;;20.38;12.95;;;21.70;64.40;;;;;;5071421;28;20033;-80
2022/09/12 00:30:42;;;;;;;18.63;12.77;;;21.70;64.50;;;;;;5069719;28;20027;-80
2022/09/12 00:33:09;;;;;;;20.13;12.43;;;21.70;64.50;;;;;;5071023;28;20020;-80
2022/09/12 00:35:44;;;;;;;19.25;12.43;;;21.70;64.50;;;;;;5071092;28;20029;-80
2022/09/12 00:38:10;;;;;;;23.08;13.65;;;21.70;64.60;;;;;;5071348;28;20028;-80
2022/09/12 00:40:37;;;;;;;20.33;13.10;;;21.60;64.60;;;;;;5069527;28;20444;-81
2022/09/12 00:43:02;;;;;;;20.02;12.32;;;21.70;64.60;;;;;;5086673;28;20028;-81
2022/09/12 00:45:30;;;;;;;19.80;12.52;;;21.60;64.50;;;;;;5069946;28;20369;-81
2022/09/12 00:48:01;;;;;;;18.52;11.65;;;21.70;64.60;;;;;;5070893;28;20068;-80
2022/09/12 00:50:27;;;;;;;17.33;12.07;;;21.70;64.60;;;;;;5069493;28;20051;-81
2022/09/12 00:53:01;;;;;;;19.42;12.13;;;21.60;64.70;;;;;;5086689;28;20032;-81
2022/09/12 00:55:40;;;;;;;18.48;11.57;;;21.60;64.60;;;;;;5071178;28;20086;-81
2022/09/12 00:58:19;;;;;;;19.30;12.65;;;21.60;64.60;;;;;;5070949;28;20033;-81
2022/09/12 01:00:46;;;;;;;19.08;12.35;;;21.60;64.70;;;;;;5070819;28;20036;-81
2022/09/12 01:03:14;;;;;;;19.95;12.35;;;21.60;64.70;;;;;;5070924;28;20031;-81
2022/09/12 01:05:46;;;;;;;19.67;11.48;;;21.60;64.70;;;;;;5070702;28;20116;-81
2022/09/12 01:08:12;;;;;;;18.75;11.75;;;21.60;64.70;;;;;;5086478;28;20055;-81
2022/09/12 01:10:39;;;;;;;19.08;12.07;;;21.60;64.70;;;;;;5086070;28;20032;-81
2022/09/12 01:13:09;;;;;;;19.08;12.10;;;21.60;64.80;;;;;;5054878;28;20063;-80
2022/09/12 01:15:39;;;;;;;18.15;11.80;;;21.60;64.80;;;;;;5074526;28;20115;-81
2022/09/12 01:18:12;;;;;;;17.20;11.23;;;21.60;64.90;;;;;;5073299;28;20068;-81
2022/09/12 01:21:02;;;;;;;19.60;11.93;;;21.60;64.90;;;;;;5073332;28;20036;-81
2022/09/12 01:23:29;;;;;;;16.88;11.43;;;21.60;64.90;;;;;;5044791;28;20492;-81
2022/09/12 01:26:04;;;;;;;17.10;11.68;;;21.60;64.90;;;;;;5090020;28;20027;-81
2022/09/12 01:28:54;;;;;;;17.45;11.35;;;21.60;65.00;;;;;;5072684;28;20484;-82
2022/09/12 01:31:23;;;;;;;15.38;10.75;;;21.60;64.90;;;;;;5074427;28;20481;-82
2022/09/12 01:33:59;;;;;;;16.30;11.15;;;21.60;64.90;;;;;;5072758;28;20124;-82
2022/09/12 01:36:28;;;;;;;16.75;10.32;;;21.60;64.80;;;;;;5089754;28;20055;-82
2022/09/12 01:39:02;;;;;;;18.42;10.65;;;21.70;64.90;;;;;;5072376;28;20038;-82
2022/09/12 01:41:39;;;;;;;17.52;11.55;;;21.70;64.90;;;;;;5072731;28;20539;-82
2022/09/12 01:44:26;;;;;;;16.95;11.20;;;21.60;64.80;;;;;;5073839;28;20032;-82
2022/09/12 01:47:12;;;;;;;16.92;11.27;;;21.70;64.80;;;;;;5073913;28;20039;-82
2022/09/12 01:49:56;;;;;;;17.42;10.68;;;21.70;64.80;;;;;;5073913;28;20032;-82
2022/09/12 01:52:31;;;;;;;16.33;10.40;;;21.70;64.80;;;;;;5073792;28;20484;-82
2022/09/12 01:55:19;;;;;;;18.27;11.15;;;21.70;64.80;;;;;;5073859;28;20555;-82
2022/09/12 01:57:56;;;;;;;18.83;10.63;;;21.70;64.90;;;;;;5089194;28;20021;-82
2022/09/12 02:00:22;;;;;;;17.42;10.93;;;21.70;64.80;;;;;;5073851;28;20025;-82
2022/09/12 02:03:01;;;;;;;16.88;10.77;;;21.70;64.80;;;;;;5072243;28;20477;-81
2022/09/12 02:05:34;;;;;;;16.40;11.32;;;21.70;64.80;;;;;;5074015;28;20110;-81
2022/09/12 02:08:18;;;;;;;15.55;10.38;;;21.60;64.80;;;;;;5073325;28;20090;-82
2022/09/12 02:11:05;;;;;;;17.08;11.02;;;21.70;64.80;;;;;;5073727;28;20391;-82
2022/09/12 02:13:41;;;;;;;17.48;10.85;;;21.70;65.40;;;;;;5072346;28;20036;-82
2022/09/12 02:16:10;;;;;;;17.65;10.23;;;21.70;64.80;;;;;;5073502;28;20303;-82
2022/09/12 02:18:40;;;;;;;18.73;11.05;;;21.70;65.30;;;;;;5071828;28;20408;-81
2022/09/12 02:21:07;;;;;;;15.45;10.07;;;21.70;64.80;;;;;;5089221;28;20025;-82
2022/09/12 02:23:37;;;;;;;16.85;10.70;;;21.70;64.80;;;;;;5071888;28;20059;-82
2022/09/12 02:26:09;;;;;;;17.88;10.35;;;21.60;64.80;;;;;;5072075;28;20032;-81
2022/09/12 02:28:40;;;;;;;15.65;10.60;;;21.60;64.80;;;;;;5072875;28;20554;-82
2022/09/12 02:31:39;;;;;;;15.40;10.57;;;21.60;64.80;;;;;;5088808;28;20103;-82
2022/09/12 02:34:14;;;;;;;15.77;9.70;;;21.60;64.90;;;;;;5073043;28;20028;-81
2022/09/12 02:36:53;;;;;;;16.85;10.52;;;21.70;65.00;;;;;;5088864;28;20043;-81
2022/09/12 02:39:20;;;;;;;17.83;10.07;;;21.60;65.00;;;;;;5072755;28;20107;-82
2022/09/12 02:41:58;;;;;;;15.15;10.52;;;21.60;64.90;;;;;;5074552;28;20020;-81
2022/09/12 02:44:25;;;;;;;16.23;10.23;;;21.60;64.90;;;;;;5074815;28;20174;-81
2022/09/12 02:46:56;;;;;;;14.80;9.38;;;21.60;65.00;;;;;;5076745;28;20111;-80
2022/09/12 02:49:22;;;;;;;14.80;9.93;;;21.60;65.00;;;;;;5074727;28;20054;-80
2022/09/12 02:51:48;;;;;;;15.35;9.48;;;21.60;64.90;;;;;;5074412;28;20029;-80
2022/09/12 02:54:16;;;;;;;16.23;9.73;;;21.60;65.50;;;;;;5089692;28;20492;-80
2022/09/12 02:56:44;;;;;;;14.95;9.20;;;21.60;64.80;;;;;;5074138;28;20424;-80
2022/09/12 02:59:14;;;;;;;14.57;9.43;;;21.60;64.80;;;;;;5074609;28;20104;-80
2022/09/12 03:02:27;;;;;;;14.93;9.55;;;21.60;65.00;;;;;;5078182;28;20037;-81
2022/09/12 03:05:31;;;;;;;18.25;10.35;;;21.60;65.00;;;;;;5078302;28;20295;-80
2022/09/12 03:08:15;;;;;;;16.65;9.90;;;21.60;65.00;;;;;;5044312;28;20037;-81
2022/09/12 03:11:05;;;;;;;15.80;9.98;;;21.60;65.10;;;;;;5072466;28;20078;-81
2022/09/12 03:13:43;;;;;;;13.25;9.00;;;21.60;65.50;;;;;;5071606;28;20044;-81
2022/09/12 03:16:14;;;;;;;15.98;9.70;;;21.60;65.10;;;;;;5087952;28;20370;-81
2022/09/12 03:19:05;;;;;;;16.85;9.43;;;21.70;65.10;;;;;;5070061;28;20024;-82
2022/09/12 03:21:44;;;;;;;18.73;9.77;;;21.60;65.00;;;;;;5070242;28;20584;-81
2022/09/12 03:24:29;;;;;;;15.77;8.75;;;21.60;65.10;;;;;;5071844;28;20029;-82
2022/09/12 03:27:00;;;;;;;15.05;9.27;;;21.60;65.10;;;;;;5070457;28;20036;-82
2022/09/12 03:29:26;;;;;;;14.57;8.73;;;21.60;65.20;;;;;;5053915;28;20028;-82
2022/09/12 03:31:54;;;;;;;14.40;9.20;;;21.60;65.00;;;;;;5071770;28;20107;-81
2022/09/12 03:34:22;;;;;;;14.55;8.90;;;21.60;65.10;;;;;;5053554;28;20551;-81
2022/09/12 03:36:49;;;;;;;15.10;9.23;;;21.60;65.10;;;;;;5053496;28;20029;-81
2022/09/12 03:39:15;;;;;;;15.65;9.10;;;21.60;65.20;;;;;;5070451;28;20059;-80
2022/09/12 03:41:41;;;;;;;14.60;8.82;;;21.60;65.20;;;;;;5071599;28;20035;-80
2022/09/12 03:44:07;;;;;;;14.88;9.18;;;21.60;65.20;;;;;;5071751;28;20025;-81
2022/09/12 03:46:33;;;;;;;18.10;8.98;;;21.60;65.30;;;;;;5070438;28;20131;-81
2022/09/12 03:48:59;;;;;;;14.70;9.13;;;21.60;65.50;;;;;;5053679;28;20064;-82
2022/09/12 03:51:25;;;;;;;15.30;8.88;;;21.60;65.70;;;;;;5071439;28;20535;-81
2022/09/12 03:53:51;;;;;;;17.20;9.40;;;21.60;65.60;;;;;;5070428;28;20094;-81
2022/09/12 03:56:18;;;;;;;14.90;9.20;;;21.60;65.60;;;;;;5071302;28;20044;-81
2022/09/12 03:58:44;;;;;;;17.42;9.18;;;21.60;65.50;;;;;;5069978;28;20017;-81
2022/09/12 04:01:14;;;;;;;14.48;9.00;;;21.60;65.70;;;;;;5070391;28;20389;-81
2022/09/12 04:03:41;;;;;;;15.27;9.02;;;21.60;66.20;;;;;;5071396;28;20024;-81
2022/09/12 04:06:09;;;;;;;18.55;9.23;;;21.60;65.50;;;;;;5053676;28;20063;-81
2022/09/12 04:08:36;;;;;;;17.65;8.90;;;21.60;65.50;;;;;;5071085;28;20025;-80
2022/09/12 04:11:07;;;;;;;15.18;8.55;;;21.60;65.50;;;;;;5071440;28;20445;-81
2022/09/12 04:13:34;;;;;;;13.25;8.32;;;21.60;65.40;;;;;;5069896;28;20036;-81
2022/09/12 04:16:00;;;;;;;17.67;9.07;;;21.60;65.30;;;;;;5070098;28;20024;-80
2022/09/12 04:18:27;;;;;;;14.15;8.63;;;21.60;65.50;;;;;;5069777;28;20397;-81
2022/09/12 04:20:53;;;;;;;13.73;8.02;;;21.60;65.40;;;;;;5071100;28;20025;-81
2022/09/12 04:23:19;;;;;;;14.93;8.63;;;21.60;65.40;;;;;;5053434;28;20032;-81
2022/09/12 04:25:56;;;;;;;15.18;9.10;;;21.60;65.30;;;;;;5071458;28;20112;-80
2022/09/12 04:28:22;;;;;;;14.32;8.30;;;21.60;65.40;;;;;;5069723;28;20028;-81
2022/09/12 04:30:48;;;;;;;14.60;8.18;;;21.60;65.30;;;;;;5069918;28;20060;-81
2022/09/12 04:33:14;;;;;;;13.32;8.45;;;21.60;65.40;;;;;;5053257;28;20040;-82
2022/09/12 04:35:40;;;;;;;14.07;8.68;;;21.60;65.30;;;;;;5071115;28;20047;-82
2022/09/12 04:38:06;;;;;;;16.83;8.35;;;21.60;65.30;;;;;;5069730;28;20051;-81
2022/09/12 04:40:32;;;;;;;13.63;7.60;;;21.60;65.20;;;;;;5069917;28;20055;-82
2022/09/12 04:42:58;;;;;;;15.73;8.30;;;21.60;65.20;;;;;;5070926;28;20493;-81
2022/09/12 04:45:24;;;;;;;13.27;8.07;;;21.60;65.30;;;;;;5069834;28;20025;-82
2022/09/12 04:47:50;;;;;;;14.93;8.40;;;21.60;65.20;;;;;;5073302;28;20032;-82
2022/09/12 04:50:16;;;;;;;14.90;8.68;;;21.60;65.20;;;;;;5073362;28;20032;-83
2022/09/12 04:52:42;;;;;;;13.85;8.52;;;21.60;65.30;;;;;;5074327;28;20063;-81
2022/09/12 04:55:08;;;;;;;13.43;8.07;;;21.60;65.30;;;;;;5074865;28;20060;-82
2022/09/12 04:57:34;;;;;;;14.57;8.30;;;21.60;65.40;;;;;;5057140;28;20104;-82
2022/09/12 05:00:01;;;;;;;12.27;7.32;;;21.60;65.30;;;;;;5056495;28;20024;-83
2022/09/12 05:02:27;;;;;;;14.38;8.60;;;21.60;65.30;;;;;;5071598;28;20033;-82
2022/09/12 05:04:53;;;;;;;12.23;7.68;;;21.60;65.50;;;;;;5073237;28;20472;-82
2022/09/12 05:07:19;;;;;;;14.55;7.82;;;21.60;65.30;;;;;;5096830;22;20139;-75
2022/09/12 05:09:45;;;;;;;15.10;8.55;;;21.60;65.30;;;;;;5101432;28;20024;-74
2022/09/12 05:12:11;;;;;;;15.52;8.35;;;21.60;65.80;;;;;;5092910;28;20044;-75
2022/09/12 05:14:37;;;;;;;13.98;8.02;;;21.60;65.20;;;;;;5094393;28;20036;-74
2022/09/12 05:17:04;;;;;;;13.07;8.15;;;21.60;65.20;;;;;;5085477;28;20025;-74
2022/09/12 05:19:31;;;;;;;12.27;7.53;;;21.60;65.30;;;;;;5072432;28;20165;-75
2022/09/12 05:21:58;;;;;;;13.73;7.85;;;21.60;65.30;;;;;;5074576;28;20469;-76
2022/09/12 05:24:24;;;;;;;14.73;7.45;;;21.60;65.40;;;;;;5074223;28;20059;-76
2022/09/12 05:26:49;;;;;;;13.05;7.70;;;21.60;65.20;;;;;;5074546;28;20028;-76
2022/09/12 05:29:15;;;;;;;12.85;7.50;;;21.60;65.40;;;;;;5072713;28;20028;-75
2022/09/12 05:31:41;;;;;;;11.68;7.40;;;21.60;65.60;;;;;;5074423;28;20492;-74
2022/09/12 05:34:08;;;;;;;13.38;8.02;;;21.60;65.50;;;;;;5073997;28;20036;-74
2022/09/12 05:36:33;;;;;;;14.57;8.13;;;21.60;65.30;;;;;;5073678;28;20020;-74
2022/09/12 05:39:00;;;;;;;12.18;7.75;;;21.60;65.40;;;;;;5073547;28;20031;-74
2022/09/12 05:41:29;;;;;;;12.07;7.50;;;21.60;65.30;;;;;;5074048;28;20400;-75
2022/09/12 05:44:00;;;;;;;15.30;8.15;;;21.60;65.40;;;;;;5073877;28;20354;-75
2022/09/12 05:46:29;;;;;;;13.80;8.10;;;21.60;65.40;;;;;;5072421;28;20048;-75
2022/09/12 05:48:57;;;;;;;14.40;8.20;;;21.60;65.40;;;;;;5071978;28;20101;-75
2022/09/12 05:51:32;;;;;;;14.50;7.90;;;21.60;65.50;;;;;;5072381;28;20037;-75
2022/09/12 05:54:00;;;;;;;12.45;7.68;;;21.60;65.60;;;;;;5072840;28;20392;-74
2022/09/12 05:56:28;;;;;;;14.23;7.85;;;21.60;65.60;;;;;;5072258;28;20020;-75
2022/09/12 05:58:57;;;;;;;15.32;8.85;;;21.60;65.60;;;;;;5071191;28;20025;-75
2022/09/12 06:01:24;;;;;;;13.95;7.32;;;21.60;65.60;;;;;;5082260;28;20099;-75
2022/09/12 06:03:53;;;;;;;16.63;8.45;;;21.60;65.60;;;;;;5085528;28;20387;-74
2022/09/12 06:06:21;;;;;;;14.15;7.90;;;21.60;65.70;;;;;;5093430;28;20034;-74
2022/09/12 06:08:50;;;;;;;14.02;7.88;;;21.60;65.60;;;;;;5093181;28;20031;-74
2022/09/12 06:11:19;;;;;;;12.80;7.60;;;21.60;65.70;;;;;;5089231;28;20024;-75
2022/09/12 06:13:45;;;;;;;14.00;7.95;;;21.60;65.70;;;;;;5085536;28;20070;-75
2022/09/12 06:16:17;;;;;;;12.15;7.22;;;21.60;65.90;;;;;;5091373;28;20141;-74
2022/09/12 06:18:52;;;;;;;12.05;7.07;;;21.60;65.70;;;;;;5075190;28;20541;-75
2022/09/12 06:21:18;;;;;;;16.02;7.75;;;21.60;65.80;;;;;;5086884;28;20044;-75
2022/09/12 06:23:45;;;;;;;12.38;7.65;;;21.60;65.90;;;;;;5088382;28;20056;-75
2022/09/12 06:26:12;;;;;;;13.35;7.07;;;21.60;65.80;;;;;;5083420;28;20053;-75
2022/09/12 06:28:40;;;;;;;16.02;7.57;;;21.60;65.40;;;;;;5075149;28;20392;-75
2022/09/12 06:31:10;;;;;;;12.82;7.68;;;21.60;65.40;;;;;;5093196;28;20030;-76
2022/09/12 06:33:39;;;;;;;12.70;7.57;;;21.70;66.30;;;;;;5093083;28;20471;-76
2022/09/12 06:36:07;;;;;;;18.47;7.63;;;21.60;66.00;;;;;;5093268;28;20024;-76
2022/09/12 06:38:34;;;;;;;16.90;7.77;;;21.70;66.10;;;;;;5072204;28;20278;-77
2022/09/12 06:41:03;;;;;;;8.43;5.07;;;21.60;66.10;;;;;;5080866;28;20420;-77
2022/09/12 06:43:29;;;;;;;11.82;5.75;;;21.60;65.10;;;;;;5092680;28;20488;-77
2022/09/12 06:45:55;;;;;;;13.85;4.95;;;21.50;64.40;;;;;;5093121;28;20059;-77
2022/09/12 06:48:21;;;;;;;11.50;4.57;;;21.50;63.80;;;;;;5092501;28;20061;-76
2022/09/12 06:50:57;;;;;;;9.73;4.50;;;21.40;63.20;;;;;;5091866;28;20407;-77
2022/09/12 06:53:24;;;;;;;8.15;3.95;;;21.30;63.50;;;;;;5092585;28;20035;-76
2022/09/12 06:56:01;;;;;;;7.88;4.30;;;21.30;63.00;;;;;;5074603;28;20118;-76
2022/09/12 06:58:29;;;;;;;8.73;3.97;;;21.30;63.10;;;;;;5092394;28;20028;-77
2022/09/12 07:01:05;;;;;;;8.90;3.63;;;21.20;62.90;;;;;;5093355;28;20497;-76
2022/09/12 07:03:31;;;;;;;9.90;3.88;;;21.20;62.90;;;;;;5092967;28;20095;-77
2022/09/12 07:06:05;;;;;;;8.77;3.65;;;21.20;63.30;;;;;;5092016;28;20028;-76
2022/09/12 07:08:31;;;;;;;12.73;3.55;;;21.20;63.40;;;;;;5074078;28;20039;-76
2022/09/12 07:11:00;;;;;;;13.35;4.13;;;21.20;64.10;;;;;;5089329;28;20119;-75
2022/09/12 07:13:26;;;;;;;28.25;4.32;;;21.20;64.60;;;;;;5079017;28;20046;-76
2022/09/12 07:15:51;;;;;;;18.88;3.85;;;21.20;65.10;;;;;;5086987;28;20028;-76
2022/09/12 07:18:17;;;;;;;17.08;3.55;;;21.30;64.50;;;;;;5082933;28;20051;-76
2022/09/12 07:20:43;;;;;;;20.70;4.43;;;21.40;64.00;;;;;;5090563;28;20474;-76
2022/09/12 07:23:08;;;;;;;13.65;3.05;;;21.40;63.90;;;;;;5090991;28;20392;-76
2022/09/12 07:25:34;;;;;;;9.77;3.35;;;21.50;64.00;;;;;;5092131;28;20059;-76
2022/09/12 07:28:01;;;;;;;16.25;3.33;;;21.50;64.30;;;;;;5092259;28;20024;-76
2022/09/12 07:30:26;;;;;;;8.00;3.13;;;21.50;64.40;;;;;;5091891;28;20495;-76
2022/09/12 07:32:53;;;;;;;15.20;3.53;;;21.60;64.60;;;;;;5090922;28;20115;-76
2022/09/12 07:35:20;;;;;;;9.57;3.25;;;21.60;64.40;;;;;;5091950;28;20020;-76
2022/09/12 07:37:46;;;;;;;10.05;3.40;;;21.60;64.60;;;;;;5090966;28;20069;-76
2022/09/12 07:40:11;;;;;;;5.65;2.58;;;21.70;64.70;;;;;;5090209;28;20070;-76
2022/09/12 07:42:37;;;;;;;9.77;3.22;;;21.70;64.90;;;;;;5088590;28;21313;-77
2022/09/12 07:45:03;;;;;;;10.93;3.42;;;21.70;66.00;;;;;;5085737;28;20032;-77
2022/09/12 07:47:29;;;;;;;15.63;3.17;;;21.70;65.90;;;;;;5087269;28;20722;-78
2022/09/12 07:49:55;;;;;;;12.52;3.25;;;21.70;66.10;;;;;;5080843;28;20020;-76
2022/09/12 07:52:21;;;;;;;16.30;3.47;;;21.80;66.60;;;;;;5078991;28;20035;-80
2022/09/12 07:54:47;;;;;;;16.33;3.83;;;21.90;67.30;;;;;;5079191;28;20085;-77
2022/09/12 07:57:14;;;;;;;18.27;4.93;;;21.90;67.40;;;;;;5083084;28;20024;-77
2022/09/12 07:59:41;;;;;;;23.00;3.97;;;21.90;68.40;;;;;;5089878;28;20111;-77
2022/09/12 08:02:13;;;;;;;21.08;3.45;;;21.90;67.70;;;;;;5091771;28;20032;-77
2022/09/12 08:04:40;;;;;;;13.75;3.17;;;21.90;67.40;;;;;;5090137;28;20103;-77
2022/09/12 08:07:07;;;;;;;10.23;3.25;;;21.90;67.10;;;;;;5090246;28;20067;-77
2022/09/12 08:09:33;;;;;;;11.65;3.08;;;22.00;67.90;;;;;;5089730;28;20144;-77
2022/09/12 08:11:59;;;;;;;14.80;3.17;;;21.90;67.70;;;;;;5091381;28;20032;-78
2022/09/12 08:14:26;;;;;;;13.45;3.13;;;21.90;68.10;;;;;;5091203;28;20032;-78
2022/09/12 08:16:52;;;;;;;14.13;3.33;;;21.90;68.10;;;;;;5091512;28;20020;-78
2022/09/12 08:19:18;;;;;;;8.52;3.25;;;21.90;68.00;;;;;;5089826;28;20475;-78
2022/09/12 08:21:44;;;;;;;12.32;3.20;;;21.90;67.40;;;;;;5090001;28;20024;-78
2022/09/12 08:24:11;;;;;;;13.57;3.17;;;21.90;67.60;;;;;;5091230;28;20035;-78
2022/09/12 08:26:37;;;;;;;11.27;2.83;;;21.90;67.80;;;;;;5091044;28;20618;-77
2022/09/12 08:29:03;;;;;;;7.40;2.90;;;22.00;67.90;;;;;;5091033;28;20529;-78
2022/09/12 08:31:35;;;;;;;13.00;3.00;;;22.00;68.10;;;;;;5090141;28;20059;-78
2022/09/12 08:34:04;;;;;;;14.38;3.10;;;22.00;68.10;;;;;;5090010;28;20024;-77
2022/09/12 08:36:31;;;;;;;7.18;2.60;;;21.90;67.90;;;;;;5090957;28;20026;-77
2022/09/12 08:38:59;;;;;;;11.43;3.30;;;22.00;68.10;;;;;;5089541;28;20403;-78
2022/09/12 08:41:39;;;;;;;6.75;2.70;;;22.00;68.00;;;;;;5091019;28;20016;-78
2022/09/12 08:44:17;;;;;;;10.10;3.30;;;22.00;68.00;;;;;;5091572;28;20548;-78
2022/09/12 08:47:02;;;;;;;12.52;3.08;;;22.00;67.70;;;;;;5089905;28;20082;-79
2022/09/12 08:49:57;;;;;;;8.35;2.72;;;22.00;67.30;;;;;;5089647;28;20128;-77
2022/09/12 08:53:03;;;;;;;8.15;2.70;;;21.90;67.20;;;;;;5090716;28;20412;-77
2022/09/12 08:55:35;;;;;;;7.05;2.60;;;21.90;67.20;;;;;;5089372;28;20028;-77
2022/09/12 08:58:13;;;;;;;10.90;3.03;;;21.90;67.30;;;;;;5089851;28;20036;-79
2022/09/12 09:00:53;;;;;;;6.85;2.95;;;22.00;67.30;;;;;;5090431;28;20028;-78
2022/09/12 09:03:55;;;;;;;11.80;3.03;;;22.00;67.20;;;;;;5091060;28;20016;-78
2022/09/12 09:06:33;;;;;;;6.97;2.50;;;22.00;67.40;;;;;;5086331;28;20366;-78
2022/09/12 09:09:22;;;;;;;5.55;2.55;;;22.00;67.30;;;;;;5082167;28;20040;-79
2022/09/12 09:11:57;;;;;;;7.72;3.03;;;22.00;67.50;;;;;;5052679;28;20063;-79
2022/09/12 09:14:47;;;;;;;11.68;3.45;;;22.00;67.10;;;;;;5087071;28;20039;-80
2022/09/12 09:17:19;;;;;;;9.18;2.60;;;22.00;67.60;;;;;;5079324;28;20024;-78
2022/09/12 09:19:55;;;;;;;9.10;2.85;;;22.00;67.40;;;;;;5076309;28;20020;-78
2022/09/12 09:22:35;;;;;;;7.82;2.45;;;22.00;67.60;;;;;;5079155;28;20027;-77
2022/09/12 09:25:06;;;;;;;7.00;2.85;;;22.10;67.60;;;;;;5080226;28;20020;-78
2022/09/12 09:27:42;;;;;;;8.18;2.70;;;22.10;67.60;;;;;;5079949;28;20025;-78
2022/09/12 09:30:16;;;;;;;6.32;2.35;;;22.10;67.60;;;;;;5079657;28;20051;-78
2022/09/12 09:32:47;;;;;;;7.03;2.65;;;22.10;67.60;;;;;;5078790;28;20569;-79
2022/09/12 09:35:39;;;;;;;10.93;2.67;;;22.10;67.60;;;;;;5082101;28;20028;-78
2022/09/12 09:38:42;;;;;;;6.70;2.38;;;22.10;67.60;;;;;;5082787;28;20060;-78
2022/09/12 09:41:35;;;;;;;8.15;2.80;;;22.10;67.60;;;;;;5082450;28;20050;-79
2022/09/12 09:44:01;;;;;;;15.75;2.90;;;22.20;67.70;;;;;;5082356;28;20506;-79
2022/09/12 09:46:27;;;;;;;21.48;2.58;;;22.20;67.60;;;;;;5064622;28;20036;-80
2022/09/12 09:48:55;;;;;;;9.95;2.83;;;22.20;67.70;;;;;;5088133;28;20047;-79
2022/09/12 09:51:33;;;;;;;16.92;2.90;;;22.20;67.60;;;;;;5082483;28;20036;-81
2022/09/12 09:54:08;;;;;;;10.18;2.78;;;22.20;67.70;;;;;;5078386;28;20502;-71
2022/09/12 09:56:39;;;;;;;13.57;3.03;;;22.20;68.00;;;;;;5079035;28;20021;-80
2022/09/12 09:59:17;;;;;;;10.85;3.13;;;22.20;67.90;;;;;;5082548;28;20028;-81
2022/09/12 10:01:53;;;;;;;12.27;2.70;;;22.20;67.80;;;;;;5070691;28;20032;-81
2022/09/12 10:04:22;;;;;;;15.35;3.20;;;22.20;67.70;;;;;;5081235;28;20024;-79
2022/09/12 10:07:01;;;;;;;11.60;2.80;;;22.10;67.80;;;;;;5087293;28;20140;-72
2022/09/12 10:09:29;;;;;;;15.68;3.63;;;22.20;67.60;;;;;;5082767;28;20024;-72
2022/09/12 10:11:55;;;;;;;17.58;3.30;;;22.20;67.70;;;;;;5090962;28;20027;-72
2022/09/12 10:14:33;;;;;;;15.25;3.58;;;22.20;68.20;;;;;;5082584;28;20484;-71
2022/09/12 10:17:02;;;;;;;24.00;3.72;;;22.30;68.30;;;;;;5083960;28;20031;-71
2022/09/12 10:19:39;;;;;;;14.10;3.83;;;22.20;68.20;;;;;;5078143;28;20025;-72
2022/09/12 10:22:09;;;;;;;16.05;3.13;;;22.30;68.30;;;;;;5081410;28;20098;-72
2022/09/12 10:24:51;;;;;;;10.00;3.15;;;22.30;68.20;;;;;;5083384;28;20020;-71
2022/09/12 10:27:30;;;;;;;12.48;3.42;;;22.30;68.30;;;;;;5092090;28;20043;-71
2022/09/12 10:30:14;;;;;;;;;;;22.30;68.40;;;;;;5089914;28;20051;-71
2022/09/12 10:32:43;;;;;;;9.32;3.65;;;22.30;68.40;;;;;;5086799;28;19915;-72
2022/09/12 10:35:20;;;;;;;14.05;3.65;;;22.30;68.40;;;;;;5091100;28;20475;-71
2022/09/12 10:38:05;;;;;;;11.52;3.65;;;22.30;68.60;;;;;;5060391;28;20020;-71
2022/09/12 10:40:41;;;;;;;14.05;3.58;;;22.30;68.30;;;;;;5091935;28;20134;-72
2022/09/12 10:43:38;;;;;;;16.45;3.50;;;22.30;68.20;;;;;;5090313;28;20467;-72
2022/09/12 10:46:18;;;;;;;12.63;3.63;;;22.30;68.50;;;;;;5063083;28;20071;-73
2022/09/12 10:48:46;;;;;;;17.48;3.20;;;22.30;68.60;;;;;;5096045;28;20028;-71
2022/09/12 11:31:21;;;;;;;8.73;2.78;;;21.90;67.20;;;;;;4917957;23;20048;-77
2022/09/12 11:33:50;;;;;;;7.55;2.50;;;21.80;65.40;;;;;;4895417;29;20032;-77
2022/09/12 11:36:35;;;;;;;4.15;2.00;;;21.80;66.00;;;;;;4899630;29;20020;-76
2022/09/12 11:39:36;;;;;;;6.10;2.63;;;21.80;64.40;;;;;;4898554;29;20028;-77
2022/09/12 11:42:06;;;;;;;7.85;2.50;;;21.80;65.40;;;;;;4914044;23;20237;-73
2022/09/12 11:44:51;;;;;;;6.30;2.30;;;21.80;65.20;;;;;;4948930;28;20055;-73
2022/09/12 11:47:19;;;;;;;7.90;2.90;;;21.80;63.80;;;;;;4954656;28;20047;-73
2022/09/12 11:49:48;;;;;;;23.77;13.13;;;21.80;64.60;;;;;;4934538;28;20015;-73
2022/09/12 11:52:18;;;;;;;;;;;21.80;62.80;;;;;;4951321;28;20024;-71
2022/09/12 11:55:02;;;;;;;40.10;16.55;;;21.80;62.30;;;;;;4952161;28;19926;-71
2022/09/12 11:57:31;;;;;;;26.25;10.68;;;21.80;62.10;;;;;;4940277;28;20030;-71
2022/09/12 12:00:01;;;;;;;19.27;9.73;;;21.80;63.90;;;;;;4959901;28;20024;-71
2022/09/12 12:02:28;;;;;;;19.90;10.60;;;21.80;64.20;;;;;;4956301;28;20020;-71
2022/09/12 12:05:13;;;;;;;17.60;10.35;;;21.80;64.60;;;;;;4954141;28;20037;-71
2022/09/12 12:07:51;;;;;;;17.15;10.38;;;21.90;64.40;;;;;;4944187;28;20063;-71
2022/09/12 12:10:25;;;;;;;20.23;10.70;;;21.90;64.80;;;;;;4926956;28;20071;-70
2022/09/12 12:12:53;;;;;;;25.75;12.32;;;21.90;64.80;;;;;;4956455;28;20042;-71
2022/09/12 12:15:22;;;;;;;21.60;11.63;;;21.90;64.70;;;;;;4954987;28;20141;-71
2022/09/12 12:18:14;;;;;;;17.90;10.40;;;21.90;64.80;;;;;;4951375;28;20019;-70
2022/09/12 12:20:40;;;;;;;21.63;11.75;;;21.90;64.80;;;;;;4956622;28;20038;-70
2022/09/12 12:23:20;;;;;;;20.55;11.10;;;21.90;64.90;;;;;;4961787;28;20098;-70
2022/09/12 12:25:55;;;;;;;20.33;11.07;;;21.90;65.00;;;;;;4961850;28;20022;-70
2022/09/12 12:28:40;;;;;;;23.55;10.07;;;21.90;65.00;;;;;;4962133;28;20038;-70
2022/09/12 12:31:06;;;;;;;27.33;12.20;;;21.90;65.10;;;;;;4959917;28;20030;-69
2022/09/12 12:33:31;;;;;;;28.20;12.05;;;22.00;65.20;;;;;;4942636;29;20046;-69
2022/09/12 12:36:04;;;;;;;34.70;13.02;;;21.90;65.30;;;;;;4946909;28;20024;-70
2022/09/12 12:38:34;;;;;;;27.67;11.25;;;21.90;65.40;;;;;;4959030;28;20459;-70
2022/09/12 12:41:15;;;;;;;;;;;21.90;65.30;;;;;;4968201;28;20109;-69
2022/09/12 12:43:42;;;;;;;29.40;12.95;;;21.90;65.50;;;;;;4950757;28;20018;-69
2022/09/12 12:46:35;;;;;;;28.88;12.20;;;21.90;65.50;;;;;;4956549;28;20038;-69
2022/09/12 12:49:17;;;;;;;36.60;13.82;;;22.00;65.50;;;;;;4958333;28;20046;-70
2022/09/12 12:51:52;;;;;;;34.67;14.18;;;22.00;65.70;;;;;;4961931;28;20430;-69
2022/09/12 12:54:44;;;;;;;39.10;13.57;;;22.00;65.70;;;;;;4937435;28;20030;-70
2022/09/12 12:57:26;;;;;;;35.42;14.65;;;21.90;65.70;;;;;;4944692;28;20035;-71
2022/09/12 13:00:00;;;;;;;33.13;14.15;;;21.90;65.80;;;;;;4964504;28;20027;-70
2022/09/12 13:02:30;;;;;;;40.20;14.13;;;22.00;65.90;;;;;;4956493;28;20399;-71
2022/09/12 13:04:58;;;;;;;45.20;15.70;;;22.00;65.90;;;;;;4956653;28;20106;-70
2022/09/12 13:07:35;;;;;;;46.17;15.52;;;22.00;65.70;;;;;;4960614;28;20396;-70
2022/09/12 13:10:03;;;;;;;39.03;14.57;;;22.00;65.80;;;;;;4967278;28;20030;-70
2022/09/12 13:12:42;;;;;;;35.38;14.68;;;21.90;65.70;;;;;;4963301;28;20031;-69
2022/09/12 13:15:48;;;;;;;38.53;14.55;;;22.00;65.90;;;;;;4966859;28;20031;-69
2022/09/12 13:18:24;;;;;;;36.28;14.63;;;22.00;66.10;;;;;;4903191;29;20024;-70
2022/09/12 13:21:11;;;;;;;40.28;14.02;;;22.00;66.20;;;;;;4902934;29;20520;-69
2022/09/12 13:23:36;;;;;;;36.20;15.05;;;22.10;66.30;;;;;;4944131;28;20035;-70
2022/09/12 13:26:09;;;;;;;30.92;15.25;;;22.10;66.90;;;;;;4961691;28;20439;-70
2022/09/12 13:28:34;;;;;;;47.50;16.52;;;22.10;66.30;;;;;;4963396;28;20148;-70
2022/09/12 13:31:19;;;;;;;37.10;16.10;;;22.10;66.60;;;;;;4949693;28;20066;-70
2022/09/12 13:33:51;;;;;;;41.72;17.38;;;22.10;66.70;;;;;;4963011;28;20542;-70
2022/09/12 13:36:36;;;;;;;39.20;17.35;;;22.10;66.90;;;;;;4943588;28;20360;-70
2022/09/12 13:39:20;;;;;;;43.20;16.08;;;22.10;67.00;;;;;;4935113;28;20031;-70
2022/09/12 13:42:13;;;;;;;40.58;17.20;;;22.20;67.20;;;;;;4957195;28;20366;-70